sensor_id;sensor_type;location;lat;lon;timestamp;temperature;humidity
10278;DHT22;5184;51.376;7.148;2022-08-19T00:00:21;17.10;99.90
10278;DHT22;5184;51.376;7.148;2022-08-19T00:02:47;17.10;99.90
10278;DHT22;5184;51.376;7.148;2022-08-19T00:05:14;17.10;1.00
10278;DHT22;5184;51.376;7.148;2022-08-19T00:07:41;17.00;1.00
10278;DHT22;5184;51.376;7.148;2022-08-19T00:10:09;17.00;55.70
10278;DHT22;5184;51.376;7.148;2022-08-19T00:12:36;17.00;60.50
10278;DHT22;5184;51.376;7.148;2022-08-19T00:15:04;16.90;55.70
10278;DHT22;5184;51.376;7.148;2022-08-19T00:17:30;17.00;99.90
10278;DHT22;5184;51.376;7.148;2022-08-19T00:19:57;17.00;1.00
10278;DHT22;5184;51.376;7.148;2022-08-19T00:22:24;16.90;1.00
10278;DHT22;5184;51.376;7.148;2022-08-19T00:24:51;16.90;99.90
10278;DHT22;5184;51.376;7.148;2022-08-19T00:27:17;16.90;1.00
10278;DHT22;5184;51.376;7.148;2022-08-19T00:29:45;16.90;99.90
10278;DHT22;5184;51.376;7.148;2022-08-19T00:32:12;16.80;99.90
10278;DHT22;5184;51.376;7.148;2022-08-19T00:34:38;16.80;99.90
10278;DHT22;5184;51.376;7.148;2022-08-19T00:37:05;16.80;99.90
10278;DHT22;5184;51.376;7.148;2022-08-19T00:39:32;16.70;99.90
10278;DHT22;5184;51.376;7.148;2022-08-19T00:41:59;16.70;99.90
10278;DHT22;5184;51.376;7.148;2022-08-19T00:44:28;16.70;1.00
10278;DHT22;5184;51.376;7.148;2022-08-19T00:46:54;16.60;1.00
10278;DHT22;5184;51.376;7.148;2022-08-19T00:49:24;16.70;1.00
10278;DHT22;5184;51.376;7.148;2022-08-19T00:51:51;16.60;23.60
10278;DHT22;5184;51.376;7.148;2022-08-19T00:54:16;16.60;1.00
10278;DHT22;5184;51.376;7.148;2022-08-19T00:56:42;16.60;1.00
10278;DHT22;5184;51.376;7.148;2022-08-19T00:59:09;16.60;99.90
10278;DHT22;5184;51.376;7.148;2022-08-19T01:01:39;16.60;99.90
10278;DHT22;5184;51.376;7.148;2022-08-19T01:04:05;16.50;99.90
10278;DHT22;5184;51.376;7.148;2022-08-19T01:06:32;16.50;1.00
10278;DHT22;5184;51.376;7.148;2022-08-19T01:08:59;16.50;95.10
10278;DHT22;5184;51.376;7.148;2022-08-19T01:11:27;16.50;93.60
10278;DHT22;5184;51.376;7.148;2022-08-19T01:13:54;16.50;99.90
10278;DHT22;5184;51.376;7.148;2022-08-19T01:16:22;16.40;99.90
10278;DHT22;5184;51.376;7.148;2022-08-19T01:18:47;16.40;99.90
10278;DHT22;5184;51.376;7.148;2022-08-19T01:21:32;16.40;1.00
10278;DHT22;5184;51.376;7.148;2022-08-19T01:23:57;16.40;1.00
10278;DHT22;5184;51.376;7.148;2022-08-19T01:26:25;16.30;99.90
10278;DHT22;5184;51.376;7.148;2022-08-19T01:28:53;16.30;99.90
10278;DHT22;5184;51.376;7.148;2022-08-19T01:31:19;16.30;1.00
10278;DHT22;5184;51.376;7.148;2022-08-19T01:33:45;16.30;1.00
10278;DHT22;5184;51.376;7.148;2022-08-19T01:36:13;16.30;15.10
10278;DHT22;5184;51.376;7.148;2022-08-19T01:38:39;16.30;65.60
10278;DHT22;5184;51.376;7.148;2022-08-19T01:41:04;16.20;18.20
10278;DHT22;5184;51.376;7.148;2022-08-19T01:43:32;16.20;99.90
10278;DHT22;5184;51.376;7.148;2022-08-19T01:45:58;16.10;1.00
10278;DHT22;5184;51.376;7.148;2022-08-19T01:48:25;16.10;1.00
10278;DHT22;5184;51.376;7.148;2022-08-19T01:50:52;16.10;6.90
10278;DHT22;5184;51.376;7.148;2022-08-19T01:53:18;16.10;1.00
10278;DHT22;5184;51.376;7.148;2022-08-19T01:55:45;16.10;81.90
10278;DHT22;5184;51.376;7.148;2022-08-19T01:58:14;16.10;1.00
10278;DHT22;5184;51.376;7.148;2022-08-19T02:00:39;16.10;1.00
10278;DHT22;5184;51.376;7.148;2022-08-19T02:03:06;16.10;1.00
10278;DHT22;5184;51.376;7.148;2022-08-19T02:05:33;16.00;1.00
10278;DHT22;5184;51.376;7.148;2022-08-19T02:07:59;16.10;25.10
10278;DHT22;5184;51.376;7.148;2022-08-19T02:10:26;16.00;1.00
10278;DHT22;5184;51.376;7.148;2022-08-19T02:12:52;16.00;1.00
10278;DHT22;5184;51.376;7.148;2022-08-19T02:15:19;16.00;1.00
10278;DHT22;5184;51.376;7.148;2022-08-19T02:17:46;16.00;1.00
10278;DHT22;5184;51.376;7.148;2022-08-19T02:20:12;16.00;99.90
10278;DHT22;5184;51.376;7.148;2022-08-19T02:22:40;16.00;1.00
10278;DHT22;5184;51.376;7.148;2022-08-19T02:25:08;16.00;1.00
10278;DHT22;5184;51.376;7.148;2022-08-19T02:27:34;16.00;1.00
10278;DHT22;5184;51.376;7.148;2022-08-19T02:30:01;16.00;57.60
10278;DHT22;5184;51.376;7.148;2022-08-19T02:32:28;15.90;99.90
10278;DHT22;5184;51.376;7.148;2022-08-19T02:34:54;15.90;99.90
10278;DHT22;5184;51.376;7.148;2022-08-19T02:37:21;16.00;99.90
10278;DHT22;5184;51.376;7.148;2022-08-19T02:39:53;16.00;93.50
10278;DHT22;5184;51.376;7.148;2022-08-19T02:42:21;15.90;1.00
10278;DHT22;5184;51.376;7.148;2022-08-19T02:44:47;15.90;1.00
10278;DHT22;5184;51.376;7.148;2022-08-19T02:47:14;15.90;1.00
10278;DHT22;5184;51.376;7.148;2022-08-19T02:49:41;15.90;1.00
10278;DHT22;5184;51.376;7.148;2022-08-19T02:52:07;15.90;1.00
10278;DHT22;5184;51.376;7.148;2022-08-19T02:54:34;15.90;99.90
10278;DHT22;5184;51.376;7.148;2022-08-19T02:57:01;15.90;1.00
10278;DHT22;5184;51.376;7.148;2022-08-19T02:59:29;15.90;1.00
10278;DHT22;5184;51.376;7.148;2022-08-19T03:01:54;15.90;1.00
10278;DHT22;5184;51.376;7.148;2022-08-19T03:04:21;15.90;1.00
10278;DHT22;5184;51.376;7.148;2022-08-19T03:06:48;15.80;1.00
10278;DHT22;5184;51.376;7.148;2022-08-19T03:09:15;15.80;1.00
10278;DHT22;5184;51.376;7.148;2022-08-19T03:11:41;15.80;1.00
10278;DHT22;5184;51.376;7.148;2022-08-19T03:14:08;15.80;61.60
10278;DHT22;5184;51.376;7.148;2022-08-19T03:16:39;15.80;6.80
10278;DHT22;5184;51.376;7.148;2022-08-19T03:19:02;15.70;1.00
10278;DHT22;5184;51.376;7.148;2022-08-19T03:21:30;15.70;1.00
10278;DHT22;5184;51.376;7.148;2022-08-19T03:23:57;15.70;1.00
10278;DHT22;5184;51.376;7.148;2022-08-19T03:26:23;15.70;1.00
10278;DHT22;5184;51.376;7.148;2022-08-19T03:28:49;15.70;1.00
10278;DHT22;5184;51.376;7.148;2022-08-19T03:31:17;15.70;1.00
10278;DHT22;5184;51.376;7.148;2022-08-19T03:33:42;15.70;1.00
10278;DHT22;5184;51.376;7.148;2022-08-19T03:36:15;15.70;1.00
10278;DHT22;5184;51.376;7.148;2022-08-19T03:38:40;15.70;1.00
10278;DHT22;5184;51.376;7.148;2022-08-19T03:41:08;15.70;1.00
10278;DHT22;5184;51.376;7.148;2022-08-19T03:43:36;15.70;1.00
10278;DHT22;5184;51.376;7.148;2022-08-19T03:46:05;15.60;1.00
10278;DHT22;5184;51.376;7.148;2022-08-19T03:48:31;15.60;1.00
10278;DHT22;5184;51.376;7.148;2022-08-19T03:50:57;15.60;1.00
10278;DHT22;5184;51.376;7.148;2022-08-19T03:53:24;15.60;1.00
10278;DHT22;5184;51.376;7.148;2022-08-19T03:55:50;15.50;1.00
10278;DHT22;5184;51.376;7.148;2022-08-19T03:58:17;15.50;99.90
10278;DHT22;5184;51.376;7.148;2022-08-19T04:00:43;15.50;99.90
10278;DHT22;5184;51.376;7.148;2022-08-19T04:03:10;15.50;99.90
10278;DHT22;5184;51.376;7.148;2022-08-19T04:05:37;15.50;99.90
10278;DHT22;5184;51.376;7.148;2022-08-19T04:08:04;15.50;99.90
10278;DHT22;5184;51.376;7.148;2022-08-19T04:10:35;15.50;99.90
10278;DHT22;5184;51.376;7.148;2022-08-19T04:12:58;15.50;99.90
10278;DHT22;5184;51.376;7.148;2022-08-19T04:15:25;15.50;99.90
10278;DHT22;5184;51.376;7.148;2022-08-19T04:17:51;15.50;99.90
10278;DHT22;5184;51.376;7.148;2022-08-19T04:20:18;15.50;99.90
10278;DHT22;5184;51.376;7.148;2022-08-19T04:22:44;15.50;99.90
10278;DHT22;5184;51.376;7.148;2022-08-19T04:25:11;15.50;99.90
10278;DHT22;5184;51.376;7.148;2022-08-19T04:27:37;16.00;99.90
10278;DHT22;5184;51.376;7.148;2022-08-19T04:30:05;15.50;99.90
10278;DHT22;5184;51.376;7.148;2022-08-19T04:32:31;15.50;99.90
10278;DHT22;5184;51.376;7.148;2022-08-19T04:34:58;15.50;99.90
10278;DHT22;5184;51.376;7.148;2022-08-19T04:37:25;15.50;99.90
10278;DHT22;5184;51.376;7.148;2022-08-19T04:39:52;15.60;99.90
10278;DHT22;5184;51.376;7.148;2022-08-19T04:42:24;15.60;99.90
10278;DHT22;5184;51.376;7.148;2022-08-19T04:44:56;15.60;99.90
10278;DHT22;5184;51.376;7.148;2022-08-19T04:47:23;15.60;99.90
10278;DHT22;5184;51.376;7.148;2022-08-19T04:49:50;15.60;1.00
10278;DHT22;5184;51.376;7.148;2022-08-19T04:52:18;15.60;1.00
10278;DHT22;5184;51.376;7.148;2022-08-19T04:54:45;15.60;1.00
10278;DHT22;5184;51.376;7.148;2022-08-19T04:57:12;15.60;1.00
10278;DHT22;5184;51.376;7.148;2022-08-19T04:59:38;15.60;1.00
10278;DHT22;5184;51.376;7.148;2022-08-19T05:02:06;15.60;1.00
10278;DHT22;5184;51.376;7.148;2022-08-19T05:04:31;15.70;1.00
10278;DHT22;5184;51.376;7.148;2022-08-19T05:06:58;15.70;1.00
10278;DHT22;5184;51.376;7.148;2022-08-19T05:09:25;15.80;1.00
10278;DHT22;5184;51.376;7.148;2022-08-19T05:11:53;15.90;1.00
10278;DHT22;5184;51.376;7.148;2022-08-19T05:14:19;15.80;1.00
10278;DHT22;5184;51.376;7.148;2022-08-19T05:16:46;15.90;1.00
10278;DHT22;5184;51.376;7.148;2022-08-19T05:19:13;16.00;1.00
10278;DHT22;5184;51.376;7.148;2022-08-19T05:21:45;16.00;1.00
10278;DHT22;5184;51.376;7.148;2022-08-19T05:24:18;16.00;1.00
10278;DHT22;5184;51.376;7.148;2022-08-19T05:26:45;16.10;1.00
10278;DHT22;5184;51.376;7.148;2022-08-19T05:29:12;16.10;1.00
10278;DHT22;5184;51.376;7.148;2022-08-19T05:31:38;16.10;1.00
10278;DHT22;5184;51.376;7.148;2022-08-19T05:34:05;16.10;1.00
10278;DHT22;5184;51.376;7.148;2022-08-19T05:36:39;16.20;1.00
10278;DHT22;5184;51.376;7.148;2022-08-19T05:39:02;16.20;1.00
10278;DHT22;5184;51.376;7.148;2022-08-19T05:41:28;16.70;1.00
10278;DHT22;5184;51.376;7.148;2022-08-19T05:43:57;16.30;1.00
10278;DHT22;5184;51.376;7.148;2022-08-19T05:46:23;16.40;1.00
10278;DHT22;5184;51.376;7.148;2022-08-19T05:48:49;16.50;1.00
10278;DHT22;5184;51.376;7.148;2022-08-19T05:51:16;16.70;1.00
10278;DHT22;5184;51.376;7.148;2022-08-19T05:53:42;16.80;1.00
10278;DHT22;5184;51.376;7.148;2022-08-19T05:56:12;17.10;1.00
10278;DHT22;5184;51.376;7.148;2022-08-19T05:58:37;17.10;1.00
10278;DHT22;5184;51.376;7.148;2022-08-19T06:01:04;17.20;1.00
10278;DHT22;5184;51.376;7.148;2022-08-19T06:03:32;17.30;99.90
10278;DHT22;5184;51.376;7.148;2022-08-19T06:05:58;17.40;99.90
10278;DHT22;5184;51.376;7.148;2022-08-19T06:08:27;17.40;99.90
10278;DHT22;5184;51.376;7.148;2022-08-19T06:10:54;17.60;99.90
10278;DHT22;5184;51.376;7.148;2022-08-19T06:13:21;17.50;99.90
10278;DHT22;5184;51.376;7.148;2022-08-19T06:15:47;17.60;1.00
10278;DHT22;5184;51.376;7.148;2022-08-19T06:18:14;17.70;1.00
10278;DHT22;5184;51.376;7.148;2022-08-19T06:20:41;17.90;1.00
10278;DHT22;5184;51.376;7.148;2022-08-19T06:23:08;17.90;1.00
10278;DHT22;5184;51.376;7.148;2022-08-19T06:25:35;18.00;99.90
10278;DHT22;5184;51.376;7.148;2022-08-19T06:28:01;18.00;99.90
10278;DHT22;5184;51.376;7.148;2022-08-19T06:30:29;18.20;1.00
10278;DHT22;5184;51.376;7.148;2022-08-19T06:32:56;18.20;99.90
10278;DHT22;5184;51.376;7.148;2022-08-19T06:35:24;18.20;99.90
10278;DHT22;5184;51.376;7.148;2022-08-19T06:37:50;18.20;99.90
10278;DHT22;5184;51.376;7.148;2022-08-19T06:40:17;18.20;1.00
10278;DHT22;5184;51.376;7.148;2022-08-19T06:42:43;18.30;1.00
10278;DHT22;5184;51.376;7.148;2022-08-19T06:45:11;18.40;22.40
10278;DHT22;5184;51.376;7.148;2022-08-19T06:47:37;18.40;18.90
10278;DHT22;5184;51.376;7.148;2022-08-19T06:50:05;18.60;99.90
10278;DHT22;5184;51.376;7.148;2022-08-19T06:52:33;18.60;99.90
10278;DHT22;5184;51.376;7.148;2022-08-19T06:54:58;18.60;1.00
10278;DHT22;5184;51.376;7.148;2022-08-19T06:57:25;18.70;99.90
10278;DHT22;5184;51.376;7.148;2022-08-19T06:59:52;18.90;1.00
10278;DHT22;5184;51.376;7.148;2022-08-19T07:02:19;18.90;1.00
10278;DHT22;5184;51.376;7.148;2022-08-19T07:04:45;19.00;59.30
10278;DHT22;5184;51.376;7.148;2022-08-19T07:07:13;19.20;99.90
10278;DHT22;5184;51.376;7.148;2022-08-19T07:09:41;19.40;1.00
10278;DHT22;5184;51.376;7.148;2022-08-19T07:12:08;19.50;14.20
10278;DHT22;5184;51.376;7.148;2022-08-19T07:14:34;19.50;4.10
10278;DHT22;5184;51.376;7.148;2022-08-19T07:17:04;19.60;99.90
10278;DHT22;5184;51.376;7.148;2022-08-19T07:19:30;19.80;1.00
10278;DHT22;5184;51.376;7.148;2022-08-19T07:21:57;19.70;1.00
10278;DHT22;5184;51.376;7.148;2022-08-19T07:24:24;19.80;1.00
10278;DHT22;5184;51.376;7.148;2022-08-19T07:26:51;19.90;99.90
10278;DHT22;5184;51.376;7.148;2022-08-19T07:29:17;20.00;99.90
10278;DHT22;5184;51.376;7.148;2022-08-19T07:31:43;20.10;99.90
10278;DHT22;5184;51.376;7.148;2022-08-19T07:34:11;20.10;1.00
10278;DHT22;5184;51.376;7.148;2022-08-19T07:36:37;20.10;1.00
10278;DHT22;5184;51.376;7.148;2022-08-19T07:39:06;20.20;1.00
10278;DHT22;5184;51.376;7.148;2022-08-19T07:41:30;20.30;1.00
10278;DHT22;5184;51.376;7.148;2022-08-19T07:43:57;20.30;1.00
10278;DHT22;5184;51.376;7.148;2022-08-19T07:46:23;20.50;99.90
10278;DHT22;5184;51.376;7.148;2022-08-19T07:48:50;20.40;99.90
10278;DHT22;5184;51.376;7.148;2022-08-19T07:51:18;20.50;99.90
10278;DHT22;5184;51.376;7.148;2022-08-19T07:53:43;20.50;99.90
10278;DHT22;5184;51.376;7.148;2022-08-19T07:56:11;20.60;99.90
10278;DHT22;5184;51.376;7.148;2022-08-19T07:58:39;20.70;88.00
10278;DHT22;5184;51.376;7.148;2022-08-19T08:01:05;20.60;76.20
10278;DHT22;5184;51.376;7.148;2022-08-19T08:03:31;20.70;99.90
10278;DHT22;5184;51.376;7.148;2022-08-19T08:06:04;20.80;10.90
10278;DHT22;5184;51.376;7.148;2022-08-19T08:08:36;20.80;4.00
10278;DHT22;5184;51.376;7.148;2022-08-19T08:11:10;20.80;27.50
10278;DHT22;5184;51.376;7.148;2022-08-19T08:13:37;20.90;46.20
10278;DHT22;5184;51.376;7.148;2022-08-19T08:16:04;20.90;32.70
10278;DHT22;5184;51.376;7.148;2022-08-19T08:18:30;20.90;1.00
10278;DHT22;5184;51.376;7.148;2022-08-19T08:20:58;21.00;63.70
10278;DHT22;5184;51.376;7.148;2022-08-19T08:23:25;21.00;15.50
10278;DHT22;5184;51.376;7.148;2022-08-19T08:25:53;21.10;1.00
10278;DHT22;5184;51.376;7.148;2022-08-19T08:28:19;21.10;1.00
10278;DHT22;5184;51.376;7.148;2022-08-19T08:30:46;21.20;1.00
10278;DHT22;5184;51.376;7.148;2022-08-19T08:33:13;21.20;1.00
10278;DHT22;5184;51.376;7.148;2022-08-19T08:35:40;21.10;99.90
10278;DHT22;5184;51.376;7.148;2022-08-19T08:38:06;21.30;99.90
10278;DHT22;5184;51.376;7.148;2022-08-19T08:40:38;21.40;99.90
10278;DHT22;5184;51.376;7.148;2022-08-19T08:43:06;21.50;99.90
10278;DHT22;5184;51.376;7.148;2022-08-19T08:45:30;21.50;1.00
10278;DHT22;5184;51.376;7.148;2022-08-19T08:47:57;21.50;99.90
10278;DHT22;5184;51.376;7.148;2022-08-19T08:50:27;21.70;94.40
10278;DHT22;5184;51.376;7.148;2022-08-19T08:52:52;21.70;91.10
10278;DHT22;5184;51.376;7.148;2022-08-19T08:55:19;21.90;1.00
10278;DHT22;5184;51.376;7.148;2022-08-19T08:58:00;22.10;1.00
10278;DHT22;5184;51.376;7.148;2022-08-19T09:00:29;22.10;1.00
10278;DHT22;5184;51.376;7.148;2022-08-19T09:02:54;22.20;99.90
10278;DHT22;5184;51.376;7.148;2022-08-19T09:05:20;22.40;99.90
10278;DHT22;5184;51.376;7.148;2022-08-19T09:08:02;22.40;1.00
10278;DHT22;5184;51.376;7.148;2022-08-19T09:10:34;22.50;47.10
10278;DHT22;5184;51.376;7.148;2022-08-19T09:13:05;22.50;99.90
10278;DHT22;5184;51.376;7.148;2022-08-19T09:15:30;22.40;99.90
10278;DHT22;5184;51.376;7.148;2022-08-19T09:17:58;22.50;99.90
10278;DHT22;5184;51.376;7.148;2022-08-19T09:20:23;22.60;99.90
10278;DHT22;5184;51.376;7.148;2022-08-19T09:22:49;22.80;93.20
10278;DHT22;5184;51.376;7.148;2022-08-19T09:25:18;23.00;1.00
10278;DHT22;5184;51.376;7.148;2022-08-19T09:27:44;23.20;1.00
10278;DHT22;5184;51.376;7.148;2022-08-19T09:30:13;23.10;1.00
10278;DHT22;5184;51.376;7.148;2022-08-19T09:32:37;23.30;1.00
10278;DHT22;5184;51.376;7.148;2022-08-19T09:35:04;23.30;1.00
10278;DHT22;5184;51.376;7.148;2022-08-19T09:37:31;23.00;1.00
10278;DHT22;5184;51.376;7.148;2022-08-19T09:39:57;22.70;15.30
10278;DHT22;5184;51.376;7.148;2022-08-19T09:42:24;22.60;99.90
10278;DHT22;5184;51.376;7.148;2022-08-19T09:44:51;22.60;99.90
10278;DHT22;5184;51.376;7.148;2022-08-19T09:47:18;22.70;99.90
10278;DHT22;5184;51.376;7.148;2022-08-19T09:49:44;22.70;99.90
10278;DHT22;5184;51.376;7.148;2022-08-19T09:52:11;22.80;1.00
10278;DHT22;5184;51.376;7.148;2022-08-19T09:54:38;22.80;1.00
10278;DHT22;5184;51.376;7.148;2022-08-19T09:57:04;22.90;22.80
10278;DHT22;5184;51.376;7.148;2022-08-19T09:59:31;23.10;1.00
10278;DHT22;5184;51.376;7.148;2022-08-19T10:01:58;23.00;1.00
10278;DHT22;5184;51.376;7.148;2022-08-19T10:04:24;23.00;1.00
10278;DHT22;5184;51.376;7.148;2022-08-19T10:06:51;23.00;1.00
10278;DHT22;5184;51.376;7.148;2022-08-19T10:09:17;23.00;1.00
10278;DHT22;5184;51.376;7.148;2022-08-19T10:11:44;23.10;1.00
10278;DHT22;5184;51.376;7.148;2022-08-19T10:14:12;23.40;99.90
10278;DHT22;5184;51.376;7.148;2022-08-19T10:16:38;23.40;99.90
10278;DHT22;5184;51.376;7.148;2022-08-19T10:19:06;23.50;99.90
10278;DHT22;5184;51.376;7.148;2022-08-19T10:21:33;23.70;99.90
10278;DHT22;5184;51.376;7.148;2022-08-19T10:24:00;23.70;99.90
10278;DHT22;5184;51.376;7.148;2022-08-19T10:26:28;23.70;99.90
10278;DHT22;5184;51.376;7.148;2022-08-19T10:28:53;23.60;99.90
10278;DHT22;5184;51.376;7.148;2022-08-19T10:31:21;23.50;99.90
10278;DHT22;5184;51.376;7.148;2022-08-19T10:33:47;23.40;99.90
10278;DHT22;5184;51.376;7.148;2022-08-19T10:36:16;23.60;99.90
10278;DHT22;5184;51.376;7.148;2022-08-19T10:38:41;23.60;99.90
10278;DHT22;5184;51.376;7.148;2022-08-19T10:41:11;23.70;99.90
10278;DHT22;5184;51.376;7.148;2022-08-19T10:43:37;23.90;99.90
10278;DHT22;5184;51.376;7.148;2022-08-19T10:46:05;23.80;99.90
10278;DHT22;5184;51.376;7.148;2022-08-19T10:48:31;24.00;99.90
10278;DHT22;5184;51.376;7.148;2022-08-19T10:50:57;24.30;1.00
10278;DHT22;5184;51.376;7.148;2022-08-19T10:53:30;24.30;13.40
10278;DHT22;5184;51.376;7.148;2022-08-19T10:55:56;24.30;64.00
10278;DHT22;5184;51.376;7.148;2022-08-19T10:58:29;24.40;17.10
10278;DHT22;5184;51.376;7.148;2022-08-19T11:00:57;24.10;88.60
10278;DHT22;5184;51.376;7.148;2022-08-19T11:03:22;24.10;97.50
10278;DHT22;5184;51.376;7.148;2022-08-19T11:06:00;24.20;1.00
10278;DHT22;5184;51.376;7.148;2022-08-19T11:08:27;24.50;1.00
10278;DHT22;5184;51.376;7.148;2022-08-19T11:10:54;24.50;1.00
10278;DHT22;5184;51.376;7.148;2022-08-19T11:13:21;24.20;1.00
10278;DHT22;5184;51.376;7.148;2022-08-19T11:15:47;24.10;99.90
10278;DHT22;5184;51.376;7.148;2022-08-19T11:18:14;24.00;1.00
10278;DHT22;5184;51.376;7.148;2022-08-19T11:20:40;24.10;1.00
10278;DHT22;5184;51.376;7.148;2022-08-19T11:23:07;24.10;1.00
10278;DHT22;5184;51.376;7.148;2022-08-19T11:25:34;24.10;1.00
10278;DHT22;5184;51.376;7.148;2022-08-19T11:28:00;24.00;1.00
10278;DHT22;5184;51.376;7.148;2022-08-19T11:30:27;24.10;1.00
10278;DHT22;5184;51.376;7.148;2022-08-19T11:32:54;24.50;1.00
10278;DHT22;5184;51.376;7.148;2022-08-19T11:35:21;24.50;1.00
10278;DHT22;5184;51.376;7.148;2022-08-19T11:37:47;24.60;1.00
10278;DHT22;5184;51.376;7.148;2022-08-19T11:40:14;24.50;1.00
10278;DHT22;5184;51.376;7.148;2022-08-19T11:42:41;24.60;1.00
10278;DHT22;5184;51.376;7.148;2022-08-19T11:45:13;24.50;1.00
10278;DHT22;5184;51.376;7.148;2022-08-19T11:47:39;24.60;1.00
10278;DHT22;5184;51.376;7.148;2022-08-19T11:50:06;24.80;1.00
10278;DHT22;5184;51.376;7.148;2022-08-19T11:52:33;24.70;1.00
10278;DHT22;5184;51.376;7.148;2022-08-19T11:55:00;24.70;1.00
10278;DHT22;5184;51.376;7.148;2022-08-19T11:57:27;24.80;1.00
10278;DHT22;5184;51.376;7.148;2022-08-19T11:59:53;24.80;1.00
10278;DHT22;5184;51.376;7.148;2022-08-19T12:02:20;24.80;1.00
10278;DHT22;5184;51.376;7.148;2022-08-19T12:04:47;24.90;1.00
10278;DHT22;5184;51.376;7.148;2022-08-19T12:07:13;25.00;1.00
10278;DHT22;5184;51.376;7.148;2022-08-19T12:09:40;25.10;1.00
10278;DHT22;5184;51.376;7.148;2022-08-19T12:12:08;25.10;1.00
10278;DHT22;5184;51.376;7.148;2022-08-19T12:14:34;25.00;1.00
10278;DHT22;5184;51.376;7.148;2022-08-19T12:17:01;25.10;1.00
10278;DHT22;5184;51.376;7.148;2022-08-19T12:19:28;25.10;1.00
10278;DHT22;5184;51.376;7.148;2022-08-19T12:21:58;25.20;1.00
10278;DHT22;5184;51.376;7.148;2022-08-19T12:24:21;25.30;1.00
10278;DHT22;5184;51.376;7.148;2022-08-19T12:26:49;25.30;1.00
10278;DHT22;5184;51.376;7.148;2022-08-19T12:29:15;25.30;1.00
10278;DHT22;5184;51.376;7.148;2022-08-19T12:31:42;25.40;1.00
10278;DHT22;5184;51.376;7.148;2022-08-19T12:34:08;25.50;1.00
10278;DHT22;5184;51.376;7.148;2022-08-19T12:36:35;25.60;1.00
10278;DHT22;5184;51.376;7.148;2022-08-19T12:39:01;25.80;99.90
10278;DHT22;5184;51.376;7.148;2022-08-19T12:41:28;25.80;99.90
10278;DHT22;5184;51.376;7.148;2022-08-19T12:43:55;25.90;99.90
10278;DHT22;5184;51.376;7.148;2022-08-19T12:46:21;26.00;99.90
10278;DHT22;5184;51.376;7.148;2022-08-19T12:48:48;26.10;99.90
10278;DHT22;5184;51.376;7.148;2022-08-19T12:51:16;26.20;99.90
10278;DHT22;5184;51.376;7.148;2022-08-19T12:53:42;26.20;99.90
10278;DHT22;5184;51.376;7.148;2022-08-19T12:56:10;25.90;73.00
10278;DHT22;5184;51.376;7.148;2022-08-19T12:58:36;25.90;71.60
10278;DHT22;5184;51.376;7.148;2022-08-19T13:01:08;26.10;1.00
10278;DHT22;5184;51.376;7.148;2022-08-19T13:03:34;26.30;1.00
10278;DHT22;5184;51.376;7.148;2022-08-19T13:06:02;26.50;1.00
10278;DHT22;5184;51.376;7.148;2022-08-19T13:08:28;26.50;1.00
10278;DHT22;5184;51.376;7.148;2022-08-19T13:11:11;26.60;1.00
10278;DHT22;5184;51.376;7.148;2022-08-19T13:13:38;26.60;1.00
10278;DHT22;5184;51.376;7.148;2022-08-19T13:16:04;26.40;1.00
10278;DHT22;5184;51.376;7.148;2022-08-19T13:18:31;26.40;1.00
10278;DHT22;5184;51.376;7.148;2022-08-19T13:21:01;26.30;1.00
10278;DHT22;5184;51.376;7.148;2022-08-19T13:23:24;26.40;1.00
10278;DHT22;5184;51.376;7.148;2022-08-19T13:25:56;26.20;1.00
10278;DHT22;5184;51.376;7.148;2022-08-19T13:28:22;26.20;1.00
10278;DHT22;5184;51.376;7.148;2022-08-19T13:30:49;26.40;1.00
10278;DHT22;5184;51.376;7.148;2022-08-19T13:33:21;26.60;1.00
10278;DHT22;5184;51.376;7.148;2022-08-19T13:35:51;26.50;1.00
10278;DHT22;5184;51.376;7.148;2022-08-19T13:38:17;26.50;1.00
10278;DHT22;5184;51.376;7.148;2022-08-19T13:40:42;26.60;1.00
10278;DHT22;5184;51.376;7.148;2022-08-19T13:43:09;26.60;1.00
10278;DHT22;5184;51.376;7.148;2022-08-19T13:45:36;26.70;1.00
10278;DHT22;5184;51.376;7.148;2022-08-19T13:48:04;26.60;1.00
10278;DHT22;5184;51.376;7.148;2022-08-19T13:50:30;26.60;1.00
10278;DHT22;5184;51.376;7.148;2022-08-19T13:52:58;26.30;1.00
10278;DHT22;5184;51.376;7.148;2022-08-19T13:55:25;25.90;1.00
10278;DHT22;5184;51.376;7.148;2022-08-19T13:57:53;25.80;1.00
10278;DHT22;5184;51.376;7.148;2022-08-19T14:00:20;25.80;1.00
10278;DHT22;5184;51.376;7.148;2022-08-19T14:02:47;25.80;1.00
10278;DHT22;5184;51.376;7.148;2022-08-19T14:05:14;25.80;1.00
10278;DHT22;5184;51.376;7.148;2022-08-19T14:07:39;26.20;1.00
10278;DHT22;5184;51.376;7.148;2022-08-19T14:10:07;26.50;1.00
10278;DHT22;5184;51.376;7.148;2022-08-19T14:12:34;27.00;1.00
10278;DHT22;5184;51.376;7.148;2022-08-19T14:15:01;27.00;1.00
10278;DHT22;5184;51.376;7.148;2022-08-19T14:17:28;27.00;1.00
10278;DHT22;5184;51.376;7.148;2022-08-19T14:19:59;27.10;1.00
10278;DHT22;5184;51.376;7.148;2022-08-19T14:22:25;27.30;1.00
10278;DHT22;5184;51.376;7.148;2022-08-19T14:24:51;27.30;1.00
10278;DHT22;5184;51.376;7.148;2022-08-19T14:27:19;27.20;1.00
10278;DHT22;5184;51.376;7.148;2022-08-19T14:29:46;27.40;1.00
10278;DHT22;5184;51.376;7.148;2022-08-19T14:32:14;27.70;1.00
10278;DHT22;5184;51.376;7.148;2022-08-19T14:34:40;27.60;1.00
10278;DHT22;5184;51.376;7.148;2022-08-19T14:37:08;28.10;1.00
10278;DHT22;5184;51.376;7.148;2022-08-19T14:39:34;28.00;1.00
10278;DHT22;5184;51.376;7.148;2022-08-19T14:42:01;27.90;1.00
10278;DHT22;5184;51.376;7.148;2022-08-19T14:44:27;27.70;1.00
10278;DHT22;5184;51.376;7.148;2022-08-19T14:46:54;27.70;1.00
10278;DHT22;5184;51.376;7.148;2022-08-19T14:49:21;27.60;1.00
10278;DHT22;5184;51.376;7.148;2022-08-19T14:51:47;27.90;1.00
10278;DHT22;5184;51.376;7.148;2022-08-19T14:54:14;27.90;1.00
10278;DHT22;5184;51.376;7.148;2022-08-19T14:56:41;27.30;1.00
10278;DHT22;5184;51.376;7.148;2022-08-19T14:59:08;27.70;1.00
10278;DHT22;5184;51.376;7.148;2022-08-19T15:01:36;28.30;1.00
10278;DHT22;5184;51.376;7.148;2022-08-19T15:04:03;29.10;1.00
10278;DHT22;5184;51.376;7.148;2022-08-19T15:06:31;29.70;1.00
10278;DHT22;5184;51.376;7.148;2022-08-19T15:08:58;29.60;1.00
10278;DHT22;5184;51.376;7.148;2022-08-19T15:11:24;29.50;1.00
10278;DHT22;5184;51.376;7.148;2022-08-19T15:13:50;29.90;1.00
10278;DHT22;5184;51.376;7.148;2022-08-19T15:16:17;29.90;1.00
10278;DHT22;5184;51.376;7.148;2022-08-19T15:18:45;28.60;1.00
10278;DHT22;5184;51.376;7.148;2022-08-19T15:21:11;28.50;1.00
10278;DHT22;5184;51.376;7.148;2022-08-19T15:23:38;28.60;1.00
10278;DHT22;5184;51.376;7.148;2022-08-19T15:26:05;28.80;1.00
10278;DHT22;5184;51.376;7.148;2022-08-19T15:28:31;29.40;1.00
10278;DHT22;5184;51.376;7.148;2022-08-19T15:30:58;28.90;1.00
10278;DHT22;5184;51.376;7.148;2022-08-19T15:33:24;28.20;1.00
10278;DHT22;5184;51.376;7.148;2022-08-19T15:35:51;27.80;1.00
10278;DHT22;5184;51.376;7.148;2022-08-19T15:38:18;27.40;1.00
10278;DHT22;5184;51.376;7.148;2022-08-19T15:40:48;26.90;1.00
10278;DHT22;5184;51.376;7.148;2022-08-19T15:43:15;26.60;1.00
10278;DHT22;5184;51.376;7.148;2022-08-19T15:45:41;26.30;1.00
10278;DHT22;5184;51.376;7.148;2022-08-19T15:48:08;26.30;1.00
10278;DHT22;5184;51.376;7.148;2022-08-19T15:50:36;26.20;1.00
10278;DHT22;5184;51.376;7.148;2022-08-19T15:53:03;26.20;1.00